Time;durP1;ratioP1;P1;durP2;ratioP2;P2;SDS_P1;SDS_P2;PMS_P1;PMS_P2;Temp;Humidity;BMP_temperature;BMP_pressure;BME280_temperature;BME280_humidity;BME280_pressure;Samples;Min_cycle;Max_cycle;Signal;HPM_P1;HPM_P2
2021/12/27 00:00:31;;;;;;;29.13;17.52;;;2.90;99.90;;;;;;5095323;28;20035;-65
2021/12/27 00:03:00;;;;;;;36.92;20.70;;;2.80;99.90;;;;;;5095793;28;20024;-65
2021/12/27 00:05:27;;;;;;;30.23;16.88;;;2.80;99.90;;;;;;5095659;28;20032;-65
2021/12/27 00:07:54;;;;;;;31.83;17.23;;;2.80;99.90;;;;;;5095523;28;20473;-65
2021/12/27 00:10:22;;;;;;;29.90;17.02;;;2.80;99.90;;;;;;5095609;28;20035;-65
2021/12/27 00:12:49;;;;;;;28.10;16.15;;;2.70;99.90;;;;;;5085100;28;20037;-65
2021/12/27 00:15:16;;;;;;;29.65;16.15;;;2.80;99.90;;;;;;5074856;28;20024;-65
2021/12/27 00:17:43;;;;;;;26.30;15.15;;;2.70;99.90;;;;;;5075165;28;20060;-65
2021/12/27 00:20:12;;;;;;;25.90;14.70;;;2.70;99.90;;;;;;5075118;28;20039;-65
2021/12/27 00:22:38;;;;;;;24.10;14.20;;;2.70;99.90;;;;;;5074977;28;20032;-65
2021/12/27 00:25:05;;;;;;;25.90;15.40;;;2.70;99.90;;;;;;5074999;28;20017;-65
2021/12/27 00:27:31;;;;;;;26.70;15.48;;;2.70;99.90;;;;;;5085825;28;20071;-65
2021/12/27 00:29:57;;;;;;;25.13;13.88;;;2.50;99.90;;;;;;5094875;28;20028;-65
2021/12/27 00:32:23;;;;;;;29.05;16.13;;;2.50;99.90;;;;;;5095288;28;20446;-65
2021/12/27 00:34:49;;;;;;;30.27;15.52;;;2.60;99.90;;;;;;5095243;28;20039;-66
2021/12/27 00:37:15;;;;;;;33.13;15.77;;;2.60;99.90;;;;;;5094871;28;20016;-65
2021/12/27 00:39:42;;;;;;;21.77;12.00;;;2.60;99.90;;;;;;5095245;28;20473;-65
2021/12/27 00:42:08;;;;;;;26.25;14.05;;;2.70;99.90;;;;;;5094839;28;20023;-65
2021/12/27 00:44:34;;;;;;;23.20;13.23;;;2.60;99.90;;;;;;5094755;28;20024;-66
2021/12/27 00:47:00;;;;;;;26.33;13.35;;;2.60;99.90;;;;;;5095471;28;20085;-66
2021/12/27 00:49:26;;;;;;;28.48;14.48;;;2.60;99.90;;;;;;5094799;28;20028;-65
2021/12/27 00:51:52;;;;;;;32.38;14.60;;;2.60;99.90;;;;;;5094808;28;20024;-66
2021/12/27 00:54:18;;;;;;;22.23;13.30;;;2.60;99.90;;;;;;5094859;28;20082;-66
2021/12/27 00:56:45;;;;;;;19.13;11.60;;;2.60;99.90;;;;;;5094827;28;20359;-66
2021/12/27 00:59:11;;;;;;;18.48;10.30;;;2.50;99.90;;;;;;5094433;28;20623;-66
2021/12/27 01:01:37;;;;;;;18.52;10.73;;;2.50;99.90;;;;;;5093803;28;20024;-66
2021/12/27 01:04:04;;;;;;;16.90;9.98;;;2.50;99.90;;;;;;5094777;28;20032;-66
2021/12/27 01:06:30;;;;;;;17.10;10.38;;;2.40;99.90;;;;;;5094585;28;20158;-66
2021/12/27 01:08:56;;;;;;;16.90;9.57;;;2.40;99.90;;;;;;5094738;28;20493;-66
2021/12/27 01:11:25;;;;;;;14.82;8.75;;;2.40;99.90;;;;;;5094236;28;20039;-66
2021/12/27 01:14:10;;;;;;;15.20;8.85;;;2.40;99.90;;;;;;5057354;28;20032;-66
2021/12/27 01:16:36;;;;;;;15.30;8.55;;;2.40;99.90;;;;;;5074095;28;20520;-65
2021/12/27 01:19:03;;;;;;;16.63;9.00;;;2.40;99.90;;;;;;5074120;28;20386;-66
2021/12/27 01:21:29;;;;;;;13.48;8.02;;;2.40;99.90;;;;;;5074418;28;20420;-66
2021/12/27 01:23:55;;;;;;;20.90;8.98;;;2.40;99.90;;;;;;5080809;28;20052;-66
2021/12/27 01:26:22;;;;;;;14.95;7.47;;;2.40;99.90;;;;;;5093944;28;20114;-65
2021/12/27 01:28:48;;;;;;;13.23;8.05;;;2.40;99.90;;;;;;5094464;28;20038;-66
2021/12/27 01:31:14;;;;;;;14.27;7.43;;;2.40;99.90;;;;;;5094468;28;20028;-66
2021/12/27 01:33:40;;;;;;;17.52;8.73;;;2.50;99.90;;;;;;5094366;28;20470;-66
2021/12/27 01:36:10;;;;;;;16.23;8.73;;;2.40;99.90;;;;;;5094340;28;20393;-66
2021/12/27 01:38:37;;;;;;;13.77;8.50;;;2.30;99.90;;;;;;5094701;28;20111;-66
2021/12/27 01:41:04;;;;;;;15.50;8.05;;;2.40;99.90;;;;;;5094185;28;20024;-66
2021/12/27 01:43:33;;;;;;;15.45;8.48;;;2.30;99.90;;;;;;5094835;28;20519;-66
2021/12/27 01:46:15;;;;;;;15.23;8.50;;;2.30;99.90;;;;;;5094234;28;20346;-66
2021/12/27 01:48:48;;;;;;;14.30;8.52;;;2.40;99.90;;;;;;5094126;28;20405;-66
2021/12/27 01:51:16;;;;;;;13.63;8.15;;;2.40;99.90;;;;;;5094296;28;20035;-66
2021/12/27 01:53:45;;;;;;;13.05;6.70;;;2.40;99.90;;;;;;5094152;28;20035;-66
2021/12/27 01:56:12;;;;;;;11.85;6.72;;;2.40;99.90;;;;;;5076264;28;20439;-66
2021/12/27 01:58:39;;;;;;;10.38;6.47;;;2.40;99.90;;;;;;5094210;28;20081;-66
2021/12/27 02:01:07;;;;;;;10.07;6.35;;;2.40;99.90;;;;;;5092630;28;20097;-66
2021/12/27 02:03:34;;;;;;;11.40;6.88;;;2.40;99.90;;;;;;5094050;28;20389;-66
2021/12/27 02:06:00;;;;;;;10.40;6.45;;;2.40;99.90;;;;;;5094126;28;20359;-66
2021/12/27 02:08:27;;;;;;;10.80;7.13;;;2.50;99.90;;;;;;5076108;28;20035;-66
2021/12/27 02:10:54;;;;;;;11.00;6.10;;;2.50;99.90;;;;;;5094001;28;20067;-66
2021/12/27 02:13:20;;;;;;;9.27;5.68;;;2.50;99.90;;;;;;5080057;28;20421;-66
2021/12/27 02:15:46;;;;;;;9.63;5.90;;;2.50;99.90;;;;;;5077808;28;20039;-66
2021/12/27 02:18:12;;;;;;;9.50;6.72;;;2.40;99.90;;;;;;5077586;28;20466;-66
2021/12/27 02:20:41;;;;;;;6.80;4.20;;;2.50;99.90;;;;;;5077513;28;20031;-66
2021/12/27 02:23:16;;;;;;;6.72;4.55;;;2.40;99.90;;;;;;5077389;28;20466;-66
2021/12/27 02:25:47;;;;;;;10.18;6.25;;;2.40;99.90;;;;;;5097542;28;20031;-66
2021/12/27 02:28:14;;;;;;;12.90;6.32;;;2.40;99.90;;;;;;5097486;28;20083;-66
2021/12/27 02:30:41;;;;;;;12.65;6.50;;;2.40;99.90;;;;;;5097476;28;20028;-66
2021/12/27 02:33:09;;;;;;;17.65;6.15;;;2.40;99.90;;;;;;5097362;28;20048;-65
2021/12/27 02:35:45;;;;;;;13.35;6.40;;;2.40;99.90;;;;;;5097386;28;20024;-66
2021/12/27 02:38:15;;;;;;;14.43;6.72;;;2.40;99.90;;;;;;5097163;28;20035;-66
2021/12/27 02:40:42;;;;;;;15.00;7.00;;;2.40;99.90;;;;;;5097490;28;20031;-66
2021/12/27 02:43:14;;;;;;;12.63;7.03;;;2.40;99.90;;;;;;5097545;28;20025;-66
2021/12/27 02:45:46;;;;;;;15.88;7.32;;;2.40;99.90;;;;;;5097125;28;20039;-66
2021/12/27 02:48:14;;;;;;;12.18;7.55;;;2.40;99.90;;;;;;5097396;28;20439;-66
2021/12/27 02:50:42;;;;;;;13.70;6.97;;;2.40;99.90;;;;;;5096922;28;20050;-66
2021/12/27 02:53:09;;;;;;;12.68;7.28;;;2.30;99.90;;;;;;5097037;28;20028;-66
2021/12/27 02:55:36;;;;;;;11.15;6.05;;;2.40;99.90;;;;;;5096906;28;20024;-66
2021/12/27 02:58:03;;;;;;;19.73;6.85;;;2.30;99.90;;;;;;5096862;28;20020;-66
2021/12/27 03:00:34;;;;;;;12.07;5.38;;;2.30;99.90;;;;;;5097024;28;20021;-66
2021/12/27 03:03:00;;;;;;;11.88;5.45;;;2.40;99.90;;;;;;5097064;28;20103;-66
2021/12/27 03:05:28;;;;;;;8.45;4.82;;;2.40;99.90;;;;;;5096727;28;20096;-66
2021/12/27 03:07:55;;;;;;;7.78;4.85;;;2.40;99.90;;;;;;5096842;28;20541;-66
2021/12/27 03:10:25;;;;;;;5.55;3.90;;;2.40;99.90;;;;;;5078604;28;20038;-66
2021/12/27 03:12:52;;;;;;;6.82;3.80;;;2.40;99.90;;;;;;5085789;28;20552;-66
2021/12/27 03:15:20;;;;;;;9.40;4.05;;;2.40;99.90;;;;;;5076407;28;20025;-66
2021/12/27 03:17:48;;;;;;;4.82;3.33;;;2.40;99.90;;;;;;5076347;28;20446;-66
2021/12/27 03:20:16;;;;;;;6.07;3.50;;;2.40;99.90;;;;;;5076340;28;20038;-66
2021/12/27 03:22:44;;;;;;;3.67;2.60;;;2.30;99.90;;;;;;5076378;28;20435;-66
2021/12/27 03:25:15;;;;;;;3.72;2.22;;;2.30;99.90;;;;;;5092264;28;20039;-65
2021/12/27 03:27:41;;;;;;;4.43;2.53;;;2.20;99.90;;;;;;5096010;28;20052;-65
2021/12/27 03:30:11;;;;;;;4.03;2.90;;;2.20;99.90;;;;;;5096296;28;20036;-66
2021/12/27 03:32:37;;;;;;;4.10;2.80;;;2.20;99.90;;;;;;5096361;28;20127;-65
2021/12/27 03:35:11;;;;;;;4.30;2.75;;;2.20;99.90;;;;;;5095971;28;20068;-66
2021/12/27 03:37:44;;;;;;;3.92;2.90;;;2.20;99.90;;;;;;5096297;28;20024;-66
2021/12/27 03:40:13;;;;;;;3.03;2.65;;;2.20;99.90;;;;;;5096005;28;20055;-65
2021/12/27 03:42:39;;;;;;;5.15;3.20;;;2.20;99.90;;;;;;5096060;28;20032;-66
2021/12/27 03:45:07;;;;;;;5.28;3.40;;;2.10;99.90;;;;;;5096099;28;20027;-66
2021/12/27 03:47:33;;;;;;;4.72;3.33;;;2.10;99.90;;;;;;5095920;28;20146;-66
2021/12/27 03:49:59;;;;;;;4.53;3.28;;;2.10;99.90;;;;;;5095949;28;20056;-66
2021/12/27 03:52:25;;;;;;;5.10;3.53;;;2.10;99.90;;;;;;5095894;28;20432;-66
2021/12/27 03:54:51;;;;;;;5.32;3.53;;;2.10;99.90;;;;;;5095665;28;20031;-65
2021/12/27 03:57:17;;;;;;;6.53;3.47;;;2.10;99.90;;;;;;5095775;28;20027;-66
2021/12/27 04:02:13;;;;;;;5.85;3.63;;;2.20;99.90;;;;;;5095525;28;20489;-66
2021/12/27 04:04:40;;;;;;;6.72;3.58;;;2.20;99.90;;;;;;5095871;28;20394;-66
2021/12/27 04:07:08;;;;;;;4.28;2.90;;;2.20;99.90;;;;;;5095648;28;20821;-65
2021/12/27 04:09:35;;;;;;;5.80;3.33;;;2.20;99.90;;;;;;5095497;28;20104;-66
2021/12/27 04:12:01;;;;;;;5.07;3.45;;;2.20;99.90;;;;;;5091798;28;20033;-66
2021/12/27 04:14:27;;;;;;;6.82;3.90;;;2.20;99.90;;;;;;5075188;28;20032;-66
2021/12/27 04:16:54;;;;;;;6.93;3.58;;;2.20;99.90;;;;;;5074885;28;20024;-65
2021/12/27 04:19:20;;;;;;;9.90;3.83;;;2.20;99.90;;;;;;5075216;28;20036;-65
2021/12/27 04:21:46;;;;;;;5.55;3.65;;;2.20;99.90;;;;;;5075196;28;20036;-65
2021/12/27 04:24:12;;;;;;;4.68;3.40;;;2.30;99.90;;;;;;5084206;28;20036;-66
2021/12/27 04:26:39;;;;;;;4.68;3.55;;;2.30;99.90;;;;;;5095105;28;20048;-65
2021/12/27 04:29:05;;;;;;;6.68;4.07;;;2.30;99.90;;;;;;5095127;28;20550;-65
2021/12/27 04:31:31;;;;;;;6.97;3.85;;;2.30;99.90;;;;;;5095296;28;20070;-65
2021/12/27 04:33:57;;;;;;;5.88;3.33;;;2.30;99.90;;;;;;5095077;28;20058;-66
2021/12/27 04:36:23;;;;;;;7.32;3.80;;;2.30;99.90;;;;;;5094828;28;20035;-65
2021/12/27 04:38:50;;;;;;;7.07;4.80;;;2.20;99.90;;;;;;5094963;28;20107;-66
2021/12/27 04:41:19;;;;;;;6.55;3.90;;;2.30;99.90;;;;;;5095165;28;20028;-66
2021/12/27 04:43:45;;;;;;;6.25;4.07;;;2.30;99.90;;;;;;5095122;28;20028;-65
2021/12/27 04:46:12;;;;;;;8.63;4.95;;;2.30;99.90;;;;;;5094530;28;20028;-66
2021/12/27 04:48:38;;;;;;;7.47;4.95;;;2.40;99.90;;;;;;5094915;28;20087;-65
2021/12/27 04:51:04;;;;;;;8.52;5.18;;;2.30;99.90;;;;;;5094851;28;20032;-66
2021/12/27 04:53:30;;;;;;;7.47;4.75;;;2.30;99.90;;;;;;5094704;28;20054;-66
2021/12/27 04:55:56;;;;;;;6.40;4.65;;;2.30;99.90;;;;;;5094790;28;20047;-65
2021/12/27 04:58:22;;;;;;;8.63;4.72;;;2.40;99.90;;;;;;5094726;28;20464;-66
2021/12/27 05:00:49;;;;;;;8.98;5.55;;;2.40;99.90;;;;;;5094390;28;20020;-65
2021/12/27 05:03:15;;;;;;;7.47;4.80;;;2.40;99.90;;;;;;5094608;28;20452;-66
2021/12/27 05:05:44;;;;;;;9.38;5.38;;;2.40;99.90;;;;;;5094456;28;20082;-66
2021/12/27 05:08:11;;;;;;;10.05;5.63;;;2.40;99.90;;;;;;5094519;28;20491;-65
2021/12/27 05:10:37;;;;;;;8.85;5.53;;;2.40;99.90;;;;;;5094595;28;20035;-65
2021/12/27 05:13:04;;;;;;;7.07;4.40;;;2.30;99.90;;;;;;5081868;28;20032;-65
2021/12/27 05:15:30;;;;;;;7.63;5.03;;;2.40;99.90;;;;;;5074293;28;20032;-66
2021/12/27 05:17:56;;;;;;;7.07;4.65;;;2.40;99.90;;;;;;5074365;28;20112;-66
2021/12/27 05:20:22;;;;;;;6.93;4.20;;;2.30;99.90;;;;;;5074155;28;20037;-66
2021/12/27 05:22:48;;;;;;;6.90;4.50;;;2.30;99.90;;;;;;5074024;28;20040;-65
2021/12/27 05:25:16;;;;;;;7.45;4.72;;;2.30;99.90;;;;;;5092023;28;20074;-66
2021/12/27 05:27:45;;;;;;;10.30;4.63;;;2.30;99.90;;;;;;5094179;28;20050;-65
2021/12/27 05:30:13;;;;;;;11.20;5.47;;;2.30;99.90;;;;;;5094463;28;20035;-66
2021/12/27 05:32:40;;;;;;;6.85;4.75;;;2.30;99.90;;;;;;5094231;28;20184;-65
2021/12/27 05:35:08;;;;;;;9.45;5.32;;;2.30;99.90;;;;;;5094040;28;20077;-65
2021/12/27 05:37:34;;;;;;;7.85;5.22;;;2.40;99.90;;;;;;5094215;28;20488;-66
2021/12/27 05:40:04;;;;;;;13.93;11.18;;;2.40;99.90;;;;;;5076275;28;20024;-65
2021/12/27 05:42:32;;;;;;;10.05;6.22;;;2.40;99.90;;;;;;5093956;28;20056;-66
2021/12/27 05:44:58;;;;;;;11.38;5.93;;;2.50;99.90;;;;;;5094630;28;20039;-66
2021/12/27 05:47:24;;;;;;;7.68;4.57;;;2.40;99.90;;;;;;5094118;28;20487;-66
2021/12/27 05:49:51;;;;;;;6.00;4.20;;;2.50;99.90;;;;;;5097817;28;20115;-66
2021/12/27 05:52:17;;;;;;;5.80;3.85;;;2.40;99.90;;;;;;5098192;28;20594;-66
2021/12/27 05:54:43;;;;;;;5.10;3.85;;;2.40;99.90;;;;;;5098196;28;20497;-66
2021/12/27 05:57:09;;;;;;;7.22;4.70;;;2.40;99.90;;;;;;5097873;28;20020;-66
2021/12/27 05:59:35;;;;;;;6.85;5.88;;;2.40;99.90;;;;;;5098126;28;20020;-66
2021/12/27 06:02:01;;;;;;;9.40;5.35;;;2.30;99.90;;;;;;5098078;28;20039;-66
2021/12/27 06:04:27;;;;;;;10.25;6.45;;;2.30;99.90;;;;;;5097546;28;20051;-66
2021/12/27 06:06:53;;;;;;;9.02;5.80;;;2.20;99.90;;;;;;5097878;28;20028;-66
2021/12/27 06:09:19;;;;;;;8.27;4.93;;;2.30;99.90;;;;;;5097857;28;20038;-66
2021/12/27 06:11:45;;;;;;;8.48;5.43;;;2.30;99.90;;;;;;5096192;28;20513;-66
2021/12/27 06:14:11;;;;;;;8.25;7.22;;;2.30;99.90;;;;;;5077514;28;20039;-66
2021/12/27 06:16:37;;;;;;;7.88;5.55;;;2.30;99.90;;;;;;5077364;28;20402;-65
2021/12/27 06:19:03;;;;;;;9.90;5.70;;;2.40;99.90;;;;;;5077390;28;20030;-66
2021/12/27 06:21:31;;;;;;;15.02;7.22;;;2.40;99.90;;;;;;5069593;28;20029;-66
2021/12/27 06:23:57;;;;;;;13.68;8.52;;;2.30;99.90;;;;;;5068496;28;20040;-66
2021/12/27 06:26:23;;;;;;;16.10;9.45;;;2.30;99.90;;;;;;5078010;28;20127;-66
2021/12/27 06:28:49;;;;;;;17.70;11.52;;;2.30;99.90;;;;;;5096027;28;20085;-66
2021/12/27 06:31:15;;;;;;;21.85;12.18;;;2.30;99.90;;;;;;5093149;28;20028;-66
2021/12/27 06:33:41;;;;;;;17.20;10.50;;;2.40;99.90;;;;;;5097915;28;20036;-66
2021/12/27 06:36:07;;;;;;;19.98;10.23;;;2.40;99.90;;;;;;5097517;28;20024;-66
2021/12/27 06:38:33;;;;;;;15.48;9.60;;;2.40;99.90;;;;;;5097598;28;20024;-66
2021/12/27 06:41:00;;;;;;;23.98;10.88;;;2.40;99.90;;;;;;5097887;28;20363;-66
2021/12/27 06:43:30;;;;;;;17.88;9.75;;;2.50;99.90;;;;;;5097048;28;20055;-66
2021/12/27 06:45:57;;;;;;;20.92;10.25;;;2.50;99.90;;;;;;5094365;28;20031;-66
2021/12/27 06:48:23;;;;;;;26.20;11.00;;;2.50;99.90;;;;;;5093368;28;20119;-66
2021/12/27 06:50:49;;;;;;;14.82;7.78;;;2.40;99.90;;;;;;5096642;28;20024;-65
2021/12/27 06:53:16;;;;;;;20.70;8.70;;;2.50;99.90;;;;;;5096593;28;20500;-66
2021/12/27 06:55:47;;;;;;;18.40;8.75;;;2.50;99.90;;;;;;5075781;28;20059;-66
2021/12/27 06:58:14;;;;;;;18.67;9.52;;;2.40;99.90;;;;;;5090064;28;20534;-66
2021/12/27 07:00:43;;;;;;;19.17;9.23;;;2.40;99.90;;;;;;5091969;28;20088;-65
2021/12/27 07:03:19;;;;;;;15.65;10.80;;;2.40;99.90;;;;;;5091819;28;20066;-66
2021/12/27 07:05:45;;;;;;;26.65;12.48;;;2.50;99.90;;;;;;5095722;28;20028;-66
2021/12/27 07:08:12;;;;;;;14.82;8.32;;;2.40;99.90;;;;;;5093440;28;20027;-65
2021/12/27 07:10:38;;;;;;;17.23;8.80;;;2.40;99.90;;;;;;5093353;28;20035;-65
2021/12/27 07:13:06;;;;;;;19.27;10.68;;;2.50;99.90;;;;;;5095596;28;20028;-65
2021/12/27 07:15:32;;;;;;;20.98;11.73;;;2.50;99.90;;;;;;5094328;28;20067;-65
2021/12/27 07:17:58;;;;;;;20.88;11.07;;;2.50;99.90;;;;;;5097298;28;20047;-65
2021/12/27 07:20:24;;;;;;;20.38;11.60;;;2.40;99.90;;;;;;5094541;28;20032;-66
2021/12/27 07:22:50;;;;;;;36.38;15.68;;;2.40;99.90;;;;;;5095569;28;20024;-65
2021/12/27 07:25:17;;;;;;;36.92;14.63;;;2.50;99.90;;;;;;5091099;28;20020;-65
2021/12/27 07:27:43;;;;;;;21.95;9.45;;;2.50;99.90;;;;;;5080778;28;20045;-66
2021/12/27 07:30:13;;;;;;;25.13;12.93;;;2.50;99.90;;;;;;5055685;28;20084;-65
2021/12/27 07:32:39;;;;;;;19.33;10.57;;;2.50;99.90;;;;;;5078362;28;20120;-65
2021/12/27 07:35:06;;;;;;;20.20;9.68;;;2.50;99.90;;;;;;5079745;28;20111;-65
2021/12/27 07:37:32;;;;;;;39.80;16.88;;;2.40;99.90;;;;;;5078457;28;20428;-65
2021/12/27 07:39:58;;;;;;;23.50;9.88;;;2.40;99.90;;;;;;5080824;28;20078;-65
2021/12/27 07:42:24;;;;;;;43.25;19.42;;;2.40;99.90;;;;;;5084300;28;20298;-67
2021/12/27 07:44:50;;;;;;;57.75;27.02;;;2.40;99.90;;;;;;5080032;28;20199;-66
2021/12/27 07:47:18;;;;;;;46.35;20.20;;;2.50;99.90;;;;;;5085499;28;20020;-66
2021/12/27 07:49:47;;;;;;;43.28;16.73;;;2.60;99.90;;;;;;5049374;28;20052;-66
2021/12/27 07:52:14;;;;;;;36.15;15.73;;;2.60;99.90;;;;;;5081830;28;20027;-66
2021/12/27 07:54:41;;;;;;;58.53;22.17;;;2.50;99.90;;;;;;5085309;28;20032;-66
2021/12/27 07:57:07;;;;;;;35.85;18.45;;;2.50;99.90;;;;;;5086342;28;20089;-66
2021/12/27 07:59:33;;;;;;;57.35;24.23;;;2.50;99.90;;;;;;5079654;28;20111;-66
2021/12/27 08:01:59;;;;;;;54.35;24.52;;;2.60;99.90;;;;;;5087674;28;20035;-66
2021/12/27 08:04:25;;;;;;;49.40;21.95;;;2.50;99.90;;;;;;5084888;28;20025;-66
2021/12/27 08:06:52;;;;;;;51.88;25.45;;;2.50;99.90;;;;;;5079727;28;20032;-66
2021/12/27 08:09:18;;;;;;;65.22;25.98;;;2.50;99.90;;;;;;5082150;28;20033;-67
2021/12/27 08:11:44;;;;;;;63.45;24.15;;;2.50;99.90;;;;;;5082010;28;20020;-67
2021/12/27 08:14:10;;;;;;;45.85;19.73;;;2.60;99.90;;;;;;5075516;28;20027;-66
2021/12/27 08:16:36;;;;;;;51.17;22.77;;;2.60;99.90;;;;;;5079534;28;20589;-66
2021/12/27 08:19:02;;;;;;;56.30;27.40;;;2.50;99.90;;;;;;5079907;28;20029;-67
2021/12/27 08:21:32;;;;;;;58.20;25.80;;;2.60;99.90;;;;;;5083505;28;20366;-65
2021/12/27 08:23:58;;;;;;;64.95;28.27;;;2.60;99.90;;;;;;5074974;28;20070;-65
2021/12/27 08:26:24;;;;;;;62.95;32.20;;;2.60;99.90;;;;;;5058001;28;20466;-66
2021/12/27 08:28:53;;;;;;;65.90;30.45;;;2.70;99.90;;;;;;5057465;28;20032;-66
2021/12/27 08:31:19;;;;;;;100.13;47.60;;;2.70;99.90;;;;;;5068917;28;20114;-66
2021/12/27 08:33:45;;;;;;;59.15;33.40;;;2.70;99.90;;;;;;5077793;28;20020;-66
2021/12/27 08:36:11;;;;;;;46.35;27.08;;;2.70;99.90;;;;;;5083235;28;20154;-66
2021/12/27 08:38:38;;;;;;;37.17;22.73;;;2.70;99.90;;;;;;5076774;28;20027;-66
2021/12/27 08:41:04;;;;;;;29.25;17.83;;;2.70;99.90;;;;;;5072968;28;20154;-66
2021/12/27 08:43:34;;;;;;;12.68;8.02;;;2.70;99.90;;;;;;5075838;28;20016;-67
